sensor_id;sensor_type;location;lat;lon;timestamp;pressure;altitude;pressure_sealevel;temperature;humidity
9325;BME280;4701;51.566;6.776;2023-01-04T06:00:21;101354.63;;;9.58;100.00
9325;BME280;4701;51.566;6.776;2023-01-04T06:02:27;101357.13;;;9.59;100.00
9325;BME280;4701;51.566;6.776;2023-01-04T06:04:29;101353.88;;;9.62;100.00
9325;BME280;4701;51.566;6.776;2023-01-04T06:06:31;101357.78;;;9.66;100.00
9325;BME280;4701;51.566;6.776;2023-01-04T06:08:36;101348.03;;;9.70;100.00
9325;BME280;4701;51.566;6.776;2023-01-04T06:10:37;101353.22;;;9.72;100.00
9325;BME280;4701;51.566;6.776;2023-01-04T06:12:40;101363.53;;;9.70;100.00
9325;BME280;4701;51.566;6.776;2023-01-04T06:14:42;101334.41;;;9.70;100.00
9325;BME280;4701;51.566;6.776;2023-01-04T06:16:45;101322.22;;;9.73;100.00
9325;BME280;4701;51.566;6.776;2023-01-04T06:18:47;101332.28;;;9.72;100.00
9325;BME280;4701;51.566;6.776;2023-01-04T06:20:49;101357.38;;;9.74;100.00
9325;BME280;4701;51.566;6.776;2023-01-04T06:22:51;101344.34;;;9.76;100.00
9325;BME280;4701;51.566;6.776;2023-01-04T06:24:53;101328.00;;;9.76;100.00
9325;BME280;4701;51.566;6.776;2023-01-04T06:26:55;101310.34;;;9.79;100.00
9325;BME280;4701;51.566;6.776;2023-01-04T06:28:56;101319.25;;;9.74;100.00
9325;BME280;4701;51.566;6.776;2023-01-04T06:31:02;101306.78;;;9.78;100.00
9325;BME280;4701;51.566;6.776;2023-01-04T06:33:05;101325.28;;;9.76;100.00
9325;BME280;4701;51.566;6.776;2023-01-04T06:35:07;101324.53;;;9.81;100.00
9325;BME280;4701;51.566;6.776;2023-01-04T06:37:09;101319.09;;;9.81;100.00
9325;BME280;4701;51.566;6.776;2023-01-04T06:39:11;101316.94;;;9.83;100.00
9325;BME280;4701;51.566;6.776;2023-01-04T06:41:13;101321.56;;;9.82;100.00
9325;BME280;4701;51.566;6.776;2023-01-04T06:43:15;101325.13;;;9.83;100.00
9325;BME280;4701;51.566;6.776;2023-01-04T06:45:17;101319.09;;;9.81;100.00
9325;BME280;4701;51.566;6.776;2023-01-04T06:47:20;101342.59;;;9.87;100.00
9325;BME280;4701;51.566;6.776;2023-01-04T06:49:23;101322.41;;;9.83;100.00
9325;BME280;4701;51.566;6.776;2023-01-04T06:51:25;101303.16;;;9.90;100.00
9325;BME280;4701;51.566;6.776;2023-01-04T06:53:27;101292.50;;;9.88;100.00
9325;BME280;4701;51.566;6.776;2023-01-04T06:55:29;101265.28;;;9.88;100.00
9325;BME280;4701;51.566;6.776;2023-01-04T06:57:31;101299.63;;;9.89;100.00
9325;BME280;4701;51.566;6.776;2023-01-04T06:59:33;101293.94;;;9.91;100.00
9325;BME280;4701;51.566;6.776;2023-01-04T07:01:35;101300.19;;;9.91;100.00
9325;BME280;4701;51.566;6.776;2023-01-04T07:03:36;101294.81;;;9.96;100.00
9325;BME280;4701;51.566;6.776;2023-01-04T07:05:40;101319.09;;;9.98;100.00
9325;BME280;4701;51.566;6.776;2023-01-04T07:07:41;101282.69;;;10.04;100.00
9325;BME280;4701;51.566;6.776;2023-01-04T07:09:43;101306.13;;;10.05;100.00
9325;BME280;4701;51.566;6.776;2023-01-04T07:11:45;101282.44;;;10.05;100.00
9325;BME280;4701;51.566;6.776;2023-01-04T07:13:47;101307.28;;;10.09;100.00
9325;BME280;4701;51.566;6.776;2023-01-04T07:15:49;101306.94;;;10.05;100.00
9325;BME280;4701;51.566;6.776;2023-01-04T07:17:51;101300.84;;;9.98;100.00
9325;BME280;4701;51.566;6.776;2023-01-04T07:19:52;101308.53;;;10.01;100.00
9325;BME280;4701;51.566;6.776;2023-01-04T07:21:59;101300.25;;;9.96;100.00
9325;BME280;4701;51.566;6.776;2023-01-04T07:24:03;101314.06;;;9.90;100.00
9325;BME280;4701;51.566;6.776;2023-01-04T07:26:07;101293.59;;;9.87;100.00
9325;BME280;4701;51.566;6.776;2023-01-04T07:28:09;101295.25;;;9.88;100.00
9325;BME280;4701;51.566;6.776;2023-01-04T07:30:12;101306.06;;;9.83;100.00
9325;BME280;4701;51.566;6.776;2023-01-04T07:32:14;101300.78;;;9.76;100.00
9325;BME280;4701;51.566;6.776;2023-01-04T07:34:18;101291.28;;;9.79;100.00
9325;BME280;4701;51.566;6.776;2023-01-04T07:36:20;101285.00;;;9.78;100.00
9325;BME280;4701;51.566;6.776;2023-01-04T07:38:23;101299.97;;;9.76;100.00
9325;BME280;4701;51.566;6.776;2023-01-04T07:40:25;101285.59;;;9.80;100.00
9325;BME280;4701;51.566;6.776;2023-01-04T07:42:27;101307.97;;;9.82;100.00
9325;BME280;4701;51.566;6.776;2023-01-04T07:44:29;101285.50;;;9.92;100.00
9325;BME280;4701;51.566;6.776;2023-01-04T07:46:31;101285.28;;;9.94;100.00
9325;BME280;4701;51.566;6.776;2023-01-04T07:48:33;101286.94;;;9.95;100.00
9325;BME280;4701;51.566;6.776;2023-01-04T07:50:36;101301.84;;;9.92;100.00
9325;BME280;4701;51.566;6.776;2023-01-04T07:52:38;101280.22;;;10.02;100.00
9325;BME280;4701;51.566;6.776;2023-01-04T07:54:41;101292.78;;;10.03;100.00
9325;BME280;4701;51.566;6.776;2023-01-04T07:56:43;101285.97;;;10.06;100.00
9325;BME280;4701;51.566;6.776;2023-01-04T07:58:46;101256.94;;;10.11;100.00
9325;BME280;4701;51.566;6.776;2023-01-04T08:00:47;101256.00;;;10.22;100.00
9325;BME280;4701;51.566;6.776;2023-01-04T08:02:49;101272.34;;;10.22;100.00
9325;BME280;4701;51.566;6.776;2023-01-04T08:04:51;101272.59;;;10.21;100.00
9325;BME280;4701;51.566;6.776;2023-01-04T08:06:53;101265.59;;;10.25;100.00
9325;BME280;4701;51.566;6.776;2023-01-04T08:08:55;101270.84;;;10.32;100.00
9325;BME280;4701;51.566;6.776;2023-01-04T08:11:01;101280.91;;;10.31;100.00
9325;BME280;4701;51.566;6.776;2023-01-04T08:13:03;101265.72;;;10.35;100.00
9325;BME280;4701;51.566;6.776;2023-01-04T08:15:05;101271.75;;;10.37;100.00
9325;BME280;4701;51.566;6.776;2023-01-04T08:17:08;101282.66;;;10.37;100.00
9325;BME280;4701;51.566;6.776;2023-01-04T08:19:13;101261.94;;;10.36;100.00
9325;BME280;4701;51.566;6.776;2023-01-04T08:21:15;101267.19;;;10.43;100.00
9325;BME280;4701;51.566;6.776;2023-01-04T08:23:20;101254.31;;;10.38;100.00
9325;BME280;4701;51.566;6.776;2023-01-04T08:25:22;101264.41;;;10.38;100.00
9325;BME280;4701;51.566;6.776;2023-01-04T08:27:25;101273.38;;;10.38;100.00
9325;BME280;4701;51.566;6.776;2023-01-04T08:29:27;101238.53;;;10.40;100.00
9325;BME280;4701;51.566;6.776;2023-01-04T08:31:31;101245.97;;;10.45;100.00
9325;BME280;4701;51.566;6.776;2023-01-04T08:33:35;101272.66;;;10.43;100.00
9325;BME280;4701;51.566;6.776;2023-01-04T08:35:37;101243.41;;;10.38;100.00
9325;BME280;4701;51.566;6.776;2023-01-04T08:37:39;101259.50;;;10.40;100.00
9325;BME280;4701;51.566;6.776;2023-01-04T08:39:40;101263.66;;;10.42;100.00
9325;BME280;4701;51.566;6.776;2023-01-04T08:41:42;101262.63;;;10.48;100.00
9325;BME280;4701;51.566;6.776;2023-01-04T08:43:55;101252.28;;;10.50;100.00
9325;BME280;4701;51.566;6.776;2023-01-04T08:45:57;101245.19;;;10.49;100.00
9325;BME280;4701;51.566;6.776;2023-01-04T08:47:59;101261.31;;;10.51;100.00
9325;BME280;4701;51.566;6.776;2023-01-04T08:50:00;101246.34;;;10.53;100.00
9325;BME280;4701;51.566;6.776;2023-01-04T08:52:03;101234.09;;;10.56;100.00
9325;BME280;4701;51.566;6.776;2023-01-04T08:54:12;101242.03;;;10.57;100.00
9325;BME280;4701;51.566;6.776;2023-01-04T08:56:14;101254.91;;;10.62;100.00
9325;BME280;4701;51.566;6.776;2023-01-04T08:58:15;101257.63;;;10.62;100.00
9325;BME280;4701;51.566;6.776;2023-01-04T09:00:19;101259.53;;;10.61;100.00
9325;BME280;4701;51.566;6.776;2023-01-04T09:02:23;101237.53;;;10.68;100.00
9325;BME280;4701;51.566;6.776;2023-01-04T09:04:25;101231.81;;;10.70;100.00
9325;BME280;4701;51.566;6.776;2023-01-04T09:06:27;101241.91;;;10.69;100.00
9325;BME280;4701;51.566;6.776;2023-01-04T09:08:30;101244.91;;;10.73;100.00
9325;BME280;4701;51.566;6.776;2023-01-04T09:10:32;101233.72;;;10.69;100.00
9325;BME280;4701;51.566;6.776;2023-01-04T09:12:37;101244.06;;;10.67;100.00
9325;BME280;4701;51.566;6.776;2023-01-04T09:14:41;101241.13;;;10.74;100.00
9325;BME280;4701;51.566;6.776;2023-01-04T09:16:45;101240.25;;;10.68;100.00
9325;BME280;4701;51.566;6.776;2023-01-04T09:18:47;101247.09;;;10.71;100.00
9325;BME280;4701;51.566;6.776;2023-01-04T09:20:49;101235.88;;;10.67;100.00
9325;BME280;4701;51.566;6.776;2023-01-04T09:22:50;101235.66;;;10.74;100.00
9325;BME280;4701;51.566;6.776;2023-01-04T09:24:52;101236.19;;;10.71;100.00
9325;BME280;4701;51.566;6.776;2023-01-04T09:26:54;101240.63;;;10.77;100.00
9325;BME280;4701;51.566;6.776;2023-01-04T09:28:56;101249.81;;;10.71;100.00
9325;BME280;4701;51.566;6.776;2023-01-04T09:31:03;101250.06;;;10.69;100.00
9325;BME280;4701;51.566;6.776;2023-01-04T09:33:09;101230.00;;;10.80;100.00
9325;BME280;4701;51.566;6.776;2023-01-04T09:35:11;101248.66;;;10.88;100.00
9325;BME280;4701;51.566;6.776;2023-01-04T09:37:13;101231.41;;;10.83;100.00
9325;BME280;4701;51.566;6.776;2023-01-04T09:39:16;101240.91;;;10.80;100.00
9325;BME280;4701;51.566;6.776;2023-01-04T09:41:23;101239.00;;;10.81;100.00
9325;BME280;4701;51.566;6.776;2023-01-04T09:43:33;101242.28;;;10.78;100.00
9325;BME280;4701;51.566;6.776;2023-01-04T09:45:37;101240.38;;;10.78;100.00
9325;BME280;4701;51.566;6.776;2023-01-04T09:47:44;101251.47;;;10.72;100.00
9325;BME280;4701;51.566;6.776;2023-01-04T09:49:52;101243.03;;;10.73;100.00
9325;BME280;4701;51.566;6.776;2023-01-04T09:52:00;101243.56;;;10.70;100.00
9325;BME280;4701;51.566;6.776;2023-01-04T09:54:05;101235.66;;;10.74;100.00
9325;BME280;4701;51.566;6.776;2023-01-04T09:56:15;101247.72;;;10.78;100.00
9325;BME280;4701;51.566;6.776;2023-01-04T09:58:24;101233.88;;;10.84;100.00
9325;BME280;4701;51.566;6.776;2023-01-04T10:00:29;101230.91;;;10.86;100.00
9325;BME280;4701;51.566;6.776;2023-01-04T10:02:39;101242.19;;;10.94;100.00
9325;BME280;4701;51.566;6.776;2023-01-04T10:04:46;101237.00;;;10.98;100.00
9325;BME280;4701;51.566;6.776;2023-01-04T10:06:50;101237.84;;;10.98;100.00
9325;BME280;4701;51.566;6.776;2023-01-04T10:09:03;101244.13;;;10.99;100.00
9325;BME280;4701;51.566;6.776;2023-01-04T10:11:18;101237.66;;;11.05;100.00
9325;BME280;4701;51.566;6.776;2023-01-04T10:13:33;101229.19;;;11.07;100.00
9325;BME280;4701;51.566;6.776;2023-01-04T10:15:46;101229.25;;;11.12;100.00
9325;BME280;4701;51.566;6.776;2023-01-04T10:17:59;101223.56;;;11.13;100.00
9325;BME280;4701;51.566;6.776;2023-01-04T10:20:43;101236.66;;;11.16;100.00
9325;BME280;4701;51.566;6.776;2023-01-04T10:22:55;101240.16;;;11.12;100.00
9325;BME280;4701;51.566;6.776;2023-01-04T10:25:17;101223.72;;;11.07;100.00
9325;BME280;4701;51.566;6.776;2023-01-04T10:27:27;101236.50;;;11.01;100.00
9325;BME280;4701;51.566;6.776;2023-01-04T10:29:54;101210.56;;;10.98;100.00
9325;BME280;4701;51.566;6.776;2023-01-04T10:32:03;101193.13;;;10.99;100.00
9325;BME280;4701;51.566;6.776;2023-01-04T10:34:15;101228.91;;;11.03;100.00
9325;BME280;4701;51.566;6.776;2023-01-04T10:36:26;101209.81;;;11.03;100.00
9325;BME280;4701;51.566;6.776;2023-01-04T10:38:34;101226.75;;;11.05;100.00
9325;BME280;4701;51.566;6.776;2023-01-04T10:40:40;101194.88;;;11.11;100.00
9325;BME280;4701;51.566;6.776;2023-01-04T10:42:48;101208.25;;;11.12;100.00
9325;BME280;4701;51.566;6.776;2023-01-04T10:45:02;101206.38;;;11.18;100.00
9325;BME280;4701;51.566;6.776;2023-01-04T10:47:09;101191.63;;;11.14;100.00
9325;BME280;4701;51.566;6.776;2023-01-04T10:49:16;101199.00;;;11.13;100.00
9325;BME280;4701;51.566;6.776;2023-01-04T10:51:26;101183.97;;;11.11;100.00
9325;BME280;4701;51.566;6.776;2023-01-04T10:53:36;101199.25;;;11.12;100.00
9325;BME280;4701;51.566;6.776;2023-01-04T10:55:44;101175.78;;;11.11;100.00
9325;BME280;4701;51.566;6.776;2023-01-04T10:57:51;101185.88;;;11.10;100.00
9325;BME280;4701;51.566;6.776;2023-01-04T11:00:00;101176.63;;;11.16;100.00
9325;BME280;4701;51.566;6.776;2023-01-04T11:02:14;101200.69;;;11.19;100.00
9325;BME280;4701;51.566;6.776;2023-01-04T11:04:23;101166.88;;;11.25;100.00
9325;BME280;4701;51.566;6.776;2023-01-04T11:06:28;101162.25;;;11.26;100.00
9325;BME280;4701;51.566;6.776;2023-01-04T11:08:37;101170.41;;;11.21;100.00
9325;BME280;4701;51.566;6.776;2023-01-04T11:10:48;101162.47;;;11.19;100.00
9325;BME280;4701;51.566;6.776;2023-01-04T11:12:51;101160.03;;;11.23;100.00
9325;BME280;4701;51.566;6.776;2023-01-04T11:14:53;101162.22;;;11.21;100.00
9325;BME280;4701;51.566;6.776;2023-01-04T11:16:58;101170.88;;;11.13;100.00
9325;BME280;4701;51.566;6.776;2023-01-04T11:19:01;101154.53;;;11.13;100.00
9325;BME280;4701;51.566;6.776;2023-01-04T11:21:05;101158.91;;;11.14;100.00
9325;BME280;4701;51.566;6.776;2023-01-04T11:23:12;101140.63;;;11.14;100.00
9325;BME280;4701;51.566;6.776;2023-01-04T11:25:17;101151.25;;;11.16;100.00
9325;BME280;4701;51.566;6.776;2023-01-04T11:27:23;101155.16;;;11.25;100.00
9325;BME280;4701;51.566;6.776;2023-01-04T11:29:31;101149.41;;;11.21;100.00
9325;BME280;4701;51.566;6.776;2023-01-04T11:31:43;101135.41;;;11.13;100.00
9325;BME280;4701;51.566;6.776;2023-01-04T11:33:51;101152.91;;;11.17;100.00
9325;BME280;4701;51.566;6.776;2023-01-04T11:35:54;101164.59;;;11.12;100.00
9325;BME280;4701;51.566;6.776;2023-01-04T11:38:09;101160.13;;;11.01;100.00
9325;BME280;4701;51.566;6.776;2023-01-04T11:40:24;101168.91;;;11.08;100.00
9325;BME280;4701;51.566;6.776;2023-01-04T11:42:27;101154.16;;;11.04;100.00
9325;BME280;4701;51.566;6.776;2023-01-04T11:44:32;101151.44;;;11.04;100.00
9325;BME280;4701;51.566;6.776;2023-01-04T11:46:34;101144.91;;;11.05;100.00
9325;BME280;4701;51.566;6.776;2023-01-04T11:48:38;101139.13;;;11.02;100.00
9325;BME280;4701;51.566;6.776;2023-01-04T11:50:41;101126.56;;;11.00;100.00
9325;BME280;4701;51.566;6.776;2023-01-04T11:52:43;101139.41;;;11.00;100.00
9325;BME280;4701;51.566;6.776;2023-01-04T11:54:47;101123.34;;;11.04;100.00
9325;BME280;4701;51.566;6.776;2023-01-04T11:57:01;101194.78;;;11.00;100.00
9325;BME280;4701;51.566;6.776;2023-01-04T11:59:14;101144.91;;;11.05;100.00
9325;BME280;4701;51.566;6.776;2023-01-04T12:01:21;101143.53;;;11.08;100.00
9325;BME280;4701;51.566;6.776;2023-01-04T12:03:26;101130.44;;;11.05;100.00
9325;BME280;4701;51.566;6.776;2023-01-04T12:05:31;101138.31;;;11.01;100.00
9325;BME280;4701;51.566;6.776;2023-01-04T12:07:34;101153.59;;;11.02;100.00
9325;BME280;4701;51.566;6.776;2023-01-04T12:09:37;101134.50;;;11.02;100.00
9325;BME280;4701;51.566;6.776;2023-01-04T12:11:40;101135.59;;;11.01;100.00
9325;BME280;4701;51.566;6.776;2023-01-04T12:13:44;101126.00;;;10.98;100.00
9325;BME280;4701;51.566;6.776;2023-01-04T12:15:55;101118.41;;;11.00;100.00
9325;BME280;4701;51.566;6.776;2023-01-04T12:18:03;101121.91;;;10.96;100.00
9325;BME280;4701;51.566;6.776;2023-01-04T12:20:12;101119.44;;;10.94;100.00
9325;BME280;4701;51.566;6.776;2023-01-04T12:22:20;101123.00;;;10.95;100.00
9325;BME280;4701;51.566;6.776;2023-01-04T12:24:26;101123.28;;;10.98;100.00
9325;BME280;4701;51.566;6.776;2023-01-04T12:26:28;101136.91;;;10.98;100.00
9325;BME280;4701;51.566;6.776;2023-01-04T12:28:32;101137.22;;;11.02;100.00
9325;BME280;4701;51.566;6.776;2023-01-04T12:30:38;101117.34;;;11.07;100.00
9325;BME280;4701;51.566;6.776;2023-01-04T12:32:43;101106.44;;;11.07;100.00
9325;BME280;4701;51.566;6.776;2023-01-04T12:34:46;101108.41;;;11.11;100.00
9325;BME280;4701;51.566;6.776;2023-01-04T12:36:54;101107.31;;;11.12;100.00
9325;BME280;4701;51.566;6.776;2023-01-04T12:39:23;101117.44;;;11.17;100.00
9325;BME280;4701;51.566;6.776;2023-01-04T12:47:03;101099.97;;;11.18;100.00
9325;BME280;4701;51.566;6.776;2023-01-04T12:49:44;101083.38;;;11.24;100.00
9325;BME280;4701;51.566;6.776;2023-01-04T12:52:34;101131.97;;;11.22;100.00
9325;BME280;4701;51.566;6.776;2023-01-04T12:54:44;101137.13;;;11.24;100.00
9325;BME280;4701;51.566;6.776;2023-01-04T12:57:09;101125.69;;;11.27;100.00
9325;BME280;4701;51.566;6.776;2023-01-04T12:59:11;101143.13;;;11.21;100.00
9325;BME280;4701;51.566;6.776;2023-01-04T13:01:22;101118.81;;;11.19;100.00
9325;BME280;4701;51.566;6.776;2023-01-04T13:03:45;101125.88;;;11.15;100.00
9325;BME280;4701;51.566;6.776;2023-01-04T13:05:53;101131.91;;;11.17;100.00
9325;BME280;4701;51.566;6.776;2023-01-04T13:07:57;101135.19;;;11.19;100.00
9325;BME280;4701;51.566;6.776;2023-01-04T13:10:04;101133.56;;;11.23;100.00
9325;BME280;4701;51.566;6.776;2023-01-04T13:14:52;101139.81;;;11.14;100.00
9325;BME280;4701;51.566;6.776;2023-01-04T13:17:15;101137.31;;;11.12;100.00
9325;BME280;4701;51.566;6.776;2023-01-04T13:19:20;101139.75;;;11.09;100.00
9325;BME280;4701;51.566;6.776;2023-01-04T13:21:26;101136.19;;;11.08;100.00
9325;BME280;4701;51.566;6.776;2023-01-04T13:23:29;101158.81;;;11.04;100.00
9325;BME280;4701;51.566;6.776;2023-01-04T13:25:31;101124.38;;;10.97;100.00
9325;BME280;4701;51.566;6.776;2023-01-04T13:27:35;101117.28;;;10.96;100.00
9325;BME280;4701;51.566;6.776;2023-01-04T13:29:39;101126.56;;;11.00;100.00
9325;BME280;4701;51.566;6.776;2023-01-04T13:31:46;101136.44;;;11.07;100.00
9325;BME280;4701;51.566;6.776;2023-01-04T13:33:49;101127.72;;;11.05;100.00
9325;BME280;4701;51.566;6.776;2023-01-04T13:36:01;101123.34;;;11.04;100.00
9325;BME280;4701;51.566;6.776;2023-01-04T13:38:11;101125.81;;;11.05;100.00
9325;BME280;4701;51.566;6.776;2023-01-04T13:40:20;101127.66;;;10.99;100.00
9325;BME280;4701;51.566;6.776;2023-01-04T13:42:38;101119.53;;;11.05;100.00
9325;BME280;4701;51.566;6.776;2023-01-04T13:47:12;101118.88;;;10.92;100.00
9325;BME280;4701;51.566;6.776;2023-01-04T13:49:15;101109.94;;;10.97;100.00
9325;BME280;4701;51.566;6.776;2023-01-04T13:51:22;101106.31;;;10.91;100.00
9325;BME280;4701;51.566;6.776;2023-01-04T13:53:27;101107.72;;;10.94;100.00
9325;BME280;4701;51.566;6.776;2023-01-04T13:55:31;101108.22;;;10.91;100.00
9325;BME280;4701;51.566;6.776;2023-01-04T13:57:33;101109.03;;;10.91;100.00
9325;BME280;4701;51.566;6.776;2023-01-04T13:59:36;101106.88;;;10.93;100.00
9325;BME280;4701;51.566;6.776;2023-01-04T14:01:41;101108.28;;;10.96;100.00
9325;BME280;4701;51.566;6.776;2023-01-04T14:03:45;101099.03;;;10.97;100.00
9325;BME280;4701;51.566;6.776;2023-01-04T14:05:49;101101.47;;;10.98;100.00
9325;BME280;4701;51.566;6.776;2023-01-04T14:07:53;101081.59;;;11.03;100.00
9325;BME280;4701;51.566;6.776;2023-01-04T14:09:56;101082.44;;;11.04;100.00
9325;BME280;4701;51.566;6.776;2023-01-04T14:12:07;101094.44;;;11.08;100.00
9325;BME280;4701;51.566;6.776;2023-01-04T14:14:29;101098.34;;;11.17;100.00
9325;BME280;4701;51.566;6.776;2023-01-04T14:16:32;101101.13;;;11.22;100.00
9325;BME280;4701;51.566;6.776;2023-01-04T14:18:34;101108.50;;;11.26;100.00
9325;BME280;4701;51.566;6.776;2023-01-04T14:20:38;101107.16;;;11.29;100.00
9325;BME280;4701;51.566;6.776;2023-01-04T14:22:48;101094.84;;;11.21;100.00
9325;BME280;4701;51.566;6.776;2023-01-04T14:24:54;101086.91;;;11.20;100.00
9325;BME280;4701;51.566;6.776;2023-01-04T14:26:56;101104.66;;;11.22;100.00
9325;BME280;4701;51.566;6.776;2023-01-04T14:28:58;101091.56;;;11.24;100.00
9325;BME280;4701;51.566;6.776;2023-01-04T14:31:33;101100.28;;;11.21;100.00
9325;BME280;4701;51.566;6.776;2023-01-04T14:33:40;101092.94;;;11.27;100.00
9325;BME280;4701;51.566;6.776;2023-01-04T14:35:42;101085.28;;;11.24;100.00
9325;BME280;4701;51.566;6.776;2023-01-04T14:37:45;101087.19;;;11.23;100.00
9325;BME280;4701;51.566;6.776;2023-01-04T14:39:47;101086.97;;;11.30;100.00
9325;BME280;4701;51.566;6.776;2023-01-04T14:41:54;101085.91;;;11.31;100.00
9325;BME280;4701;51.566;6.776;2023-01-04T14:44:08;101071.13;;;11.27;100.00
9325;BME280;4701;51.566;6.776;2023-01-04T14:46:11;101075.75;;;11.26;100.00
9325;BME280;4701;51.566;6.776;2023-01-04T14:48:13;101063.50;;;11.29;100.00
9325;BME280;4701;51.566;6.776;2023-01-04T14:50:15;101065.16;;;11.35;100.00
9325;BME280;4701;51.566;6.776;2023-01-04T14:52:20;101057.16;;;11.23;100.00
9325;BME280;4701;51.566;6.776;2023-01-04T14:54:24;101064.84;;;11.26;100.00
9325;BME280;4701;51.566;6.776;2023-01-04T14:56:26;101062.63;;;11.23;100.00
9325;BME280;4701;51.566;6.776;2023-01-04T14:58:30;101073.06;;;11.31;100.00
9325;BME280;4701;51.566;6.776;2023-01-04T15:00:32;101075.78;;;11.31;100.00
9325;BME280;4701;51.566;6.776;2023-01-04T15:02:34;101080.16;;;11.32;100.00
9325;BME280;4701;51.566;6.776;2023-01-04T15:04:37;101070.06;;;11.33;100.00
9325;BME280;4701;51.566;6.776;2023-01-04T15:06:46;101069.53;;;11.31;100.00
9325;BME280;4701;51.566;6.776;2023-01-04T15:08:48;101087.25;;;11.33;100.00
9325;BME280;4701;51.566;6.776;2023-01-04T15:10:51;101091.38;;;11.36;100.00
9325;BME280;4701;51.566;6.776;2023-01-04T15:12:54;101079.63;;;11.35;100.00
9325;BME280;4701;51.566;6.776;2023-01-04T15:14:58;101095.50;;;11.38;100.00
9325;BME280;4701;51.566;6.776;2023-01-04T15:17:00;101076.41;;;11.38;100.00
9325;BME280;4701;51.566;6.776;2023-01-04T15:19:02;101094.69;;;11.43;100.00
9325;BME280;4701;51.566;6.776;2023-01-04T15:21:05;101089.22;;;11.43;100.00
9325;BME280;4701;51.566;6.776;2023-01-04T15:23:07;101089.75;;;11.40;100.00
9325;BME280;4701;51.566;6.776;2023-01-04T15:25:10;101084.03;;;11.42;100.00
9325;BME280;4701;51.566;6.776;2023-01-04T15:27:12;101084.59;;;11.38;100.00
9325;BME280;4701;51.566;6.776;2023-01-04T15:29:14;101084.59;;;11.38;100.00
9325;BME280;4701;51.566;6.776;2023-01-04T15:31:17;101082.13;;;11.37;100.00
9325;BME280;4701;51.566;6.776;2023-01-04T15:33:19;101077.81;;;11.46;100.00
9325;BME280;4701;51.566;6.776;2023-01-04T15:35:20;101084.91;;;11.47;100.00
9325;BME280;4701;51.566;6.776;2023-01-04T15:37:22;101084.09;;;11.52;100.00
9325;BME280;4701;51.566;6.776;2023-01-04T15:39:24;101069.06;;;11.49;100.00
9325;BME280;4701;51.566;6.776;2023-01-04T15:41:26;101080.28;;;11.53;100.00
9325;BME280;4701;51.566;6.776;2023-01-04T15:43:45;101060.38;;;11.57;100.00
9325;BME280;4701;51.566;6.776;2023-01-04T15:45:47;101060.38;;;11.57;100.00
9325;BME280;4701;51.566;6.776;2023-01-04T15:47:50;101055.50;;;11.64;100.00
9325;BME280;4701;51.566;6.776;2023-01-04T15:49:52;101062.06;;;11.63;100.00
9325;BME280;4701;51.566;6.776;2023-01-04T15:51:54;101065.06;;;11.62;100.00
9325;BME280;4701;51.566;6.776;2023-01-04T15:53:56;101053.31;;;11.66;100.00
9325;BME280;4701;51.566;6.776;2023-01-04T15:56:06;101070.00;;;11.65;100.00
9325;BME280;4701;51.566;6.776;2023-01-04T15:58:08;101048.41;;;11.68;100.00
9325;BME280;4701;51.566;6.776;2023-01-04T16:00:11;101048.94;;;11.65;100.00
9325;BME280;4701;51.566;6.776;2023-01-04T16:02:13;101064.22;;;11.61;100.00
9325;BME280;4701;51.566;6.776;2023-01-04T16:04:17;101060.16;;;11.64;100.00
9325;BME280;4701;51.566;6.776;2023-01-04T16:06:22;101055.78;;;11.63;100.00
9325;BME280;4701;51.566;6.776;2023-01-04T16:08:24;101056.88;;;11.67;100.00
9325;BME280;4701;51.566;6.776;2023-01-04T16:10:26;101049.22;;;11.64;100.00
9325;BME280;4701;51.566;6.776;2023-01-04T16:12:28;101054.69;;;11.64;100.00
9325;BME280;4701;51.566;6.776;2023-01-04T16:14:45;101056.59;;;11.68;100.00
9325;BME280;4701;51.566;6.776;2023-01-04T16:16:47;101055.53;;;11.69;100.00
9325;BME280;4701;51.566;6.776;2023-01-04T16:18:50;101061.31;;;11.78;100.00
9325;BME280;4701;51.566;6.776;2023-01-04T16:20:54;101068.34;;;11.69;100.00
9325;BME280;4701;51.566;6.776;2023-01-04T16:22:56;101074.38;;;11.71;100.00
9325;BME280;4701;51.566;6.776;2023-01-04T16:24:57;101069.53;;;11.78;100.00
9325;BME280;4701;51.566;6.776;2023-01-04T16:26:59;101050.66;;;11.77;100.00
9325;BME280;4701;51.566;6.776;2023-01-04T16:29:01;101040.22;;;11.68;100.00
9325;BME280;4701;51.566;6.776;2023-01-04T16:31:04;101051.75;;;11.75;100.00
9325;BME280;4701;51.566;6.776;2023-01-04T16:33:07;101055.81;;;11.73;100.00
9325;BME280;4701;51.566;6.776;2023-01-04T16:35:09;101038.09;;;11.75;100.00
9325;BME280;4701;51.566;6.776;2023-01-04T16:37:12;101044.91;;;11.73;100.00
9325;BME280;4701;51.566;6.776;2023-01-04T16:39:14;101048.41;;;11.68;100.00
9325;BME280;4701;51.566;6.776;2023-01-04T16:41:20;101038.84;;;11.66;100.00
9325;BME280;4701;51.566;6.776;2023-01-04T16:43:21;101055.31;;;11.76;100.00
9325;BME280;4701;51.566;6.776;2023-01-04T16:45:23;101042.19;;;11.73;100.00
9325;BME280;4701;51.566;6.776;2023-01-04T16:47:25;101039.75;;;11.77;100.00
9325;BME280;4701;51.566;6.776;2023-01-04T16:49:27;101034.03;;;11.78;100.00
9325;BME280;4701;51.566;6.776;2023-01-04T16:51:30;101047.38;;;11.74;100.00
9325;BME280;4701;51.566;6.776;2023-01-04T16:53:35;101053.88;;;11.68;100.00
9325;BME280;4701;51.566;6.776;2023-01-04T16:55:37;101043.25;;;11.72;100.00
9325;BME280;4701;51.566;6.776;2023-01-04T16:57:39;101049.31;;;11.79;100.00
9325;BME280;4701;51.566;6.776;2023-01-04T16:59:44;101051.75;;;11.75;100.00
9325;BME280;4701;51.566;6.776;2023-01-04T17:01:48;101049.25;;;11.74;100.00
9325;BME280;4701;51.566;6.776;2023-01-04T17:03:53;101053.63;;;11.70;100.00
9325;BME280;4701;51.566;6.776;2023-01-04T17:06:05;101054.78;;;11.79;100.00
9325;BME280;4701;51.566;6.776;2023-01-04T17:08:07;101055.03;;;11.78;100.00
9325;BME280;4701;51.566;6.776;2023-01-04T17:10:10;101048.97;;;11.70;100.00
9325;BME280;4701;51.566;6.776;2023-01-04T17:12:30;101042.44;;;11.71;100.00
9325;BME280;4701;51.566;6.776;2023-01-04T17:14:33;101052.22;;;11.62;100.00
9325;BME280;4701;51.566;6.776;2023-01-04T17:16:37;101048.94;;;11.60;100.00